Fort Albany, Canada
Current Conditions -  °F | °C
As of 7:07 PM on Friday 24 Oct 2014 (Local Time) from CYMO Reporting Station
Broken Clouds Broken Clouds  
Wind Chill: 50°   Ceiling: 12000
Heat Index: 50°   Visibility: 9mi
Dew Point: 45°   Wind: 9mph
Humidity: 82%   Direction: 190°S
Pressure: 29.71"   Gusts: NA
Location:  52.25°N, 81.62°W
Report Text: CYMO 242307Z AUTO 19008KT 9SM BKN120 10/07 A2971 RMK SLP060
Loading
Personal Weather Stations






























Interactive Weather Map
Tropical Storm Tracking
New forecast layout! Learn more

10-Day Weather Forecast

Advertisements
Track Severe Weather on mobile